sensor_id;sensor_type;location;lat;lon;timestamp;temperature;humidity
22491;DHT22;11412;50.802;4.350;2024-01-30T00:01:17;12.00;99.90
22491;DHT22;11412;50.802;4.350;2024-01-30T00:03:42;12.30;99.90
22491;DHT22;11412;50.802;4.350;2024-01-30T00:06:09;12.50;99.90
22491;DHT22;11412;50.802;4.350;2024-01-30T00:08:34;12.60;99.90
22491;DHT22;11412;50.802;4.350;2024-01-30T00:11:00;12.50;99.90
22491;DHT22;11412;50.802;4.350;2024-01-30T00:13:26;12.40;99.90
22491;DHT22;11412;50.802;4.350;2024-01-30T00:15:52;12.40;99.90
22491;DHT22;11412;50.802;4.350;2024-01-30T00:18:18;12.40;99.90
22491;DHT22;11412;50.802;4.350;2024-01-30T00:20:44;12.60;99.90
22491;DHT22;11412;50.802;4.350;2024-01-30T00:23:10;12.60;99.90
22491;DHT22;11412;50.802;4.350;2024-01-30T00:25:35;12.60;99.90
22491;DHT22;11412;50.802;4.350;2024-01-30T00:28:01;12.60;99.90
22491;DHT22;11412;50.802;4.350;2024-01-30T00:30:27;12.70;99.90
22491;DHT22;11412;50.802;4.350;2024-01-30T00:32:53;12.80;99.90
22491;DHT22;11412;50.802;4.350;2024-01-30T00:35:19;13.00;99.90
22491;DHT22;11412;50.802;4.350;2024-01-30T00:37:47;13.00;99.90
22491;DHT22;11412;50.802;4.350;2024-01-30T00:40:13;13.00;99.90
22491;DHT22;11412;50.802;4.350;2024-01-30T00:42:44;13.10;99.90
22491;DHT22;11412;50.802;4.350;2024-01-30T00:45:16;13.20;99.90
22491;DHT22;11412;50.802;4.350;2024-01-30T00:47:42;13.20;99.90
22491;DHT22;11412;50.802;4.350;2024-01-30T00:50:08;13.20;99.90
22491;DHT22;11412;50.802;4.350;2024-01-30T00:52:34;13.10;99.90
22491;DHT22;11412;50.802;4.350;2024-01-30T00:55:00;13.00;99.90
22491;DHT22;11412;50.802;4.350;2024-01-30T00:57:25;13.00;99.90
22491;DHT22;11412;50.802;4.350;2024-01-30T00:59:52;12.90;99.90
22491;DHT22;11412;50.802;4.350;2024-01-30T01:02:18;12.90;99.90
22491;DHT22;11412;50.802;4.350;2024-01-30T01:04:44;13.10;99.90
22491;DHT22;11412;50.802;4.350;2024-01-30T01:07:11;13.00;99.90
22491;DHT22;11412;50.802;4.350;2024-01-30T01:09:36;12.90;99.90
22491;DHT22;11412;50.802;4.350;2024-01-30T01:12:03;13.10;99.90
22491;DHT22;11412;50.802;4.350;2024-01-30T01:14:29;13.20;99.90
22491;DHT22;11412;50.802;4.350;2024-01-30T01:16:55;13.10;99.90
22491;DHT22;11412;50.802;4.350;2024-01-30T01:19:21;13.10;99.90
22491;DHT22;11412;50.802;4.350;2024-01-30T01:21:46;12.90;99.90
22491;DHT22;11412;50.802;4.350;2024-01-30T01:24:12;13.00;99.90
22491;DHT22;11412;50.802;4.350;2024-01-30T01:26:38;13.20;99.90
22491;DHT22;11412;50.802;4.350;2024-01-30T01:29:04;13.30;99.90
22491;DHT22;11412;50.802;4.350;2024-01-30T01:31:36;13.00;99.90
22491;DHT22;11412;50.802;4.350;2024-01-30T01:34:06;13.30;99.90
22491;DHT22;11412;50.802;4.350;2024-01-30T01:36:31;13.10;99.90
22491;DHT22;11412;50.802;4.350;2024-01-30T01:38:57;13.30;99.90
22491;DHT22;11412;50.802;4.350;2024-01-30T01:41:22;13.20;99.90
22491;DHT22;11412;50.802;4.350;2024-01-30T01:43:48;13.10;99.90
22491;DHT22;11412;50.802;4.350;2024-01-30T01:46:14;13.30;99.90
22491;DHT22;11412;50.802;4.350;2024-01-30T01:48:41;13.30;99.90
22491;DHT22;11412;50.802;4.350;2024-01-30T01:51:08;13.40;99.90
22491;DHT22;11412;50.802;4.350;2024-01-30T01:53:35;13.30;99.90
22491;DHT22;11412;50.802;4.350;2024-01-30T01:56:01;13.40;99.90
22491;DHT22;11412;50.802;4.350;2024-01-30T01:58:27;13.40;99.90
22491;DHT22;11412;50.802;4.350;2024-01-30T02:00:56;13.20;99.90
22491;DHT22;11412;50.802;4.350;2024-01-30T02:03:23;13.30;99.90
22491;DHT22;11412;50.802;4.350;2024-01-30T02:05:50;13.30;99.90
22491;DHT22;11412;50.802;4.350;2024-01-30T02:08:16;13.10;99.90
22491;DHT22;11412;50.802;4.350;2024-01-30T02:10:42;13.30;99.90
22491;DHT22;11412;50.802;4.350;2024-01-30T02:13:08;13.30;99.90
22491;DHT22;11412;50.802;4.350;2024-01-30T02:15:34;13.40;99.90
22491;DHT22;11412;50.802;4.350;2024-01-30T02:17:59;13.30;99.90
22491;DHT22;11412;50.802;4.350;2024-01-30T02:20:28;13.30;99.90
22491;DHT22;11412;50.802;4.350;2024-01-30T02:22:56;13.30;99.90
22491;DHT22;11412;50.802;4.350;2024-01-30T02:25:35;13.50;99.90
22491;DHT22;11412;50.802;4.350;2024-01-30T02:28:01;13.40;99.90
22491;DHT22;11412;50.802;4.350;2024-01-30T02:30:26;13.30;99.90
22491;DHT22;11412;50.802;4.350;2024-01-30T02:32:52;13.30;99.90
22491;DHT22;11412;50.802;4.350;2024-01-30T02:35:18;13.00;99.90
22491;DHT22;11412;50.802;4.350;2024-01-30T02:37:43;13.00;99.90
22491;DHT22;11412;50.802;4.350;2024-01-30T02:40:09;13.10;99.90
22491;DHT22;11412;50.802;4.350;2024-01-30T02:42:35;13.40;99.90
22491;DHT22;11412;50.802;4.350;2024-01-30T02:45:00;13.50;99.90
22491;DHT22;11412;50.802;4.350;2024-01-30T02:47:26;13.30;99.90
22491;DHT22;11412;50.802;4.350;2024-01-30T02:49:52;13.40;99.90
22491;DHT22;11412;50.802;4.350;2024-01-30T02:52:17;13.40;99.90
22491;DHT22;11412;50.802;4.350;2024-01-30T02:54:43;13.40;99.90
22491;DHT22;11412;50.802;4.350;2024-01-30T02:57:09;13.30;99.90
22491;DHT22;11412;50.802;4.350;2024-01-30T02:59:34;13.40;99.90
22491;DHT22;11412;50.802;4.350;2024-01-30T03:02:01;13.50;99.90
22491;DHT22;11412;50.802;4.350;2024-01-30T03:04:27;13.50;99.90
22491;DHT22;11412;50.802;4.350;2024-01-30T03:06:52;13.40;99.90
22491;DHT22;11412;50.802;4.350;2024-01-30T03:09:18;13.30;99.90
22491;DHT22;11412;50.802;4.350;2024-01-30T03:11:44;13.20;99.90
22491;DHT22;11412;50.802;4.350;2024-01-30T03:14:09;13.20;99.90
22491;DHT22;11412;50.802;4.350;2024-01-30T03:16:38;13.10;99.90
22491;DHT22;11412;50.802;4.350;2024-01-30T03:19:06;13.40;99.90
22491;DHT22;11412;50.802;4.350;2024-01-30T03:21:33;13.50;99.90
22491;DHT22;11412;50.802;4.350;2024-01-30T03:23:59;13.40;99.90
22491;DHT22;11412;50.802;4.350;2024-01-30T03:26:25;13.30;99.90
22491;DHT22;11412;50.802;4.350;2024-01-30T03:28:50;13.50;99.90
22491;DHT22;11412;50.802;4.350;2024-01-30T03:31:16;13.50;99.90
22491;DHT22;11412;50.802;4.350;2024-01-30T03:33:42;13.40;99.90
22491;DHT22;11412;50.802;4.350;2024-01-30T03:36:09;13.60;99.90
22491;DHT22;11412;50.802;4.350;2024-01-30T03:38:35;13.60;99.90
22491;DHT22;11412;50.802;4.350;2024-01-30T03:41:00;13.60;99.90
22491;DHT22;11412;50.802;4.350;2024-01-30T03:43:26;13.60;99.90
22491;DHT22;11412;50.802;4.350;2024-01-30T03:45:52;13.60;99.90
22491;DHT22;11412;50.802;4.350;2024-01-30T03:48:19;13.80;99.90
22491;DHT22;11412;50.802;4.350;2024-01-30T03:50:45;13.60;99.90
22491;DHT22;11412;50.802;4.350;2024-01-30T03:53:11;13.40;99.90
22491;DHT22;11412;50.802;4.350;2024-01-30T03:55:36;13.50;99.90
22491;DHT22;11412;50.802;4.350;2024-01-30T03:58:02;13.40;99.90
22491;DHT22;11412;50.802;4.350;2024-01-30T04:00:28;13.40;99.90
22491;DHT22;11412;50.802;4.350;2024-01-30T04:02:53;13.10;99.90
22491;DHT22;11412;50.802;4.350;2024-01-30T04:05:19;13.20;99.90
22491;DHT22;11412;50.802;4.350;2024-01-30T04:07:45;13.10;99.90
22491;DHT22;11412;50.802;4.350;2024-01-30T04:10:10;13.20;99.90
22491;DHT22;11412;50.802;4.350;2024-01-30T04:12:36;13.10;99.90
22491;DHT22;11412;50.802;4.350;2024-01-30T04:15:02;13.10;99.90
22491;DHT22;11412;50.802;4.350;2024-01-30T04:17:28;13.40;99.90
22491;DHT22;11412;50.802;4.350;2024-01-30T04:19:55;13.70;99.90
22491;DHT22;11412;50.802;4.350;2024-01-30T04:22:20;13.40;99.90
22491;DHT22;11412;50.802;4.350;2024-01-30T04:24:46;13.10;99.90
22491;DHT22;11412;50.802;4.350;2024-01-30T04:27:12;12.90;99.90
22491;DHT22;11412;50.802;4.350;2024-01-30T04:29:38;12.90;99.90
22491;DHT22;11412;50.802;4.350;2024-01-30T04:32:04;13.10;99.90
22491;DHT22;11412;50.802;4.350;2024-01-30T04:34:30;12.90;99.90
22491;DHT22;11412;50.802;4.350;2024-01-30T04:36:55;13.00;99.90
22491;DHT22;11412;50.802;4.350;2024-01-30T04:39:21;13.40;99.90
22491;DHT22;11412;50.802;4.350;2024-01-30T04:41:47;13.10;99.90
22491;DHT22;11412;50.802;4.350;2024-01-30T04:44:14;13.00;99.90
22491;DHT22;11412;50.802;4.350;2024-01-30T04:46:39;13.00;99.90
22491;DHT22;11412;50.802;4.350;2024-01-30T04:49:05;12.90;99.90
22491;DHT22;11412;50.802;4.350;2024-01-30T04:51:33;13.00;99.90
22491;DHT22;11412;50.802;4.350;2024-01-30T04:53:59;13.00;99.90
22491;DHT22;11412;50.802;4.350;2024-01-30T04:56:24;12.80;99.90
22491;DHT22;11412;50.802;4.350;2024-01-30T04:58:50;12.50;99.90
22491;DHT22;11412;50.802;4.350;2024-01-30T05:01:16;12.80;99.90
22491;DHT22;11412;50.802;4.350;2024-01-30T05:03:42;12.80;99.90
22491;DHT22;11412;50.802;4.350;2024-01-30T05:06:08;12.90;99.90
22491;DHT22;11412;50.802;4.350;2024-01-30T05:08:34;12.70;99.90
22491;DHT22;11412;50.802;4.350;2024-01-30T05:11:02;12.80;99.90
22491;DHT22;11412;50.802;4.350;2024-01-30T05:13:31;12.60;99.90
22491;DHT22;11412;50.802;4.350;2024-01-30T05:15:57;12.90;99.90
22491;DHT22;11412;50.802;4.350;2024-01-30T05:18:22;12.70;99.90
22491;DHT22;11412;50.802;4.350;2024-01-30T05:20:50;12.80;99.90
22491;DHT22;11412;50.802;4.350;2024-01-30T05:23:16;13.00;99.90
22491;DHT22;11412;50.802;4.350;2024-01-30T05:25:41;13.00;99.90
22491;DHT22;11412;50.802;4.350;2024-01-30T05:28:07;12.80;99.90
22491;DHT22;11412;50.802;4.350;2024-01-30T05:30:33;12.80;99.90
22491;DHT22;11412;50.802;4.350;2024-01-30T05:32:58;13.10;99.90
22491;DHT22;11412;50.802;4.350;2024-01-30T05:35:24;13.20;99.90
22491;DHT22;11412;50.802;4.350;2024-01-30T05:37:50;13.20;99.90
22491;DHT22;11412;50.802;4.350;2024-01-30T05:40:16;13.30;99.90
22491;DHT22;11412;50.802;4.350;2024-01-30T05:42:42;13.40;99.90
22491;DHT22;11412;50.802;4.350;2024-01-30T05:45:08;13.40;99.90
22491;DHT22;11412;50.802;4.350;2024-01-30T05:47:34;13.20;99.90
22491;DHT22;11412;50.802;4.350;2024-01-30T05:50:00;13.30;99.90
22491;DHT22;11412;50.802;4.350;2024-01-30T05:52:25;12.90;99.90
22491;DHT22;11412;50.802;4.350;2024-01-30T05:54:51;12.80;99.90
22491;DHT22;11412;50.802;4.350;2024-01-30T05:57:17;13.00;99.90
22491;DHT22;11412;50.802;4.350;2024-01-30T05:59:44;12.80;99.90
22491;DHT22;11412;50.802;4.350;2024-01-30T06:02:13;13.00;99.90
22491;DHT22;11412;50.802;4.350;2024-01-30T06:04:39;13.10;99.90
22491;DHT22;11412;50.802;4.350;2024-01-30T06:07:04;13.00;99.90
22491;DHT22;11412;50.802;4.350;2024-01-30T06:09:32;13.00;99.90
22491;DHT22;11412;50.802;4.350;2024-01-30T06:11:58;12.80;99.90
22491;DHT22;11412;50.802;4.350;2024-01-30T06:14:24;12.90;99.90
22491;DHT22;11412;50.802;4.350;2024-01-30T06:16:49;13.10;99.90
22491;DHT22;11412;50.802;4.350;2024-01-30T06:19:15;13.10;99.90
22491;DHT22;11412;50.802;4.350;2024-01-30T06:21:41;13.20;99.90
22491;DHT22;11412;50.802;4.350;2024-01-30T06:24:06;13.20;99.90
22491;DHT22;11412;50.802;4.350;2024-01-30T06:26:33;13.00;99.90
22491;DHT22;11412;50.802;4.350;2024-01-30T06:28:59;13.00;99.90
22491;DHT22;11412;50.802;4.350;2024-01-30T06:31:25;13.00;99.90
22491;DHT22;11412;50.802;4.350;2024-01-30T06:33:50;13.10;99.90
22491;DHT22;11412;50.802;4.350;2024-01-30T06:36:16;13.10;99.90
22491;DHT22;11412;50.802;4.350;2024-01-30T06:38:42;13.00;99.90
22491;DHT22;11412;50.802;4.350;2024-01-30T06:41:07;12.90;99.90
22491;DHT22;11412;50.802;4.350;2024-01-30T06:43:33;12.90;99.90
22491;DHT22;11412;50.802;4.350;2024-01-30T06:45:59;12.80;99.90
22491;DHT22;11412;50.802;4.350;2024-01-30T06:48:25;12.70;99.90
22491;DHT22;11412;50.802;4.350;2024-01-30T06:50:53;12.60;99.90
22491;DHT22;11412;50.802;4.350;2024-01-30T06:53:19;12.70;99.90
22491;DHT22;11412;50.802;4.350;2024-01-30T06:55:45;12.90;99.90
22491;DHT22;11412;50.802;4.350;2024-01-30T06:58:11;13.00;99.90
22491;DHT22;11412;50.802;4.350;2024-01-30T07:00:37;13.00;99.90
22491;DHT22;11412;50.802;4.350;2024-01-30T07:03:03;13.00;99.90
22491;DHT22;11412;50.802;4.350;2024-01-30T07:05:29;12.90;99.90
22491;DHT22;11412;50.802;4.350;2024-01-30T07:07:54;12.80;99.90
22491;DHT22;11412;50.802;4.350;2024-01-30T07:10:20;12.80;99.90
22491;DHT22;11412;50.802;4.350;2024-01-30T07:12:46;13.00;99.90
22491;DHT22;11412;50.802;4.350;2024-01-30T07:15:12;12.70;99.90
22491;DHT22;11412;50.802;4.350;2024-01-30T07:17:40;12.80;99.90
22491;DHT22;11412;50.802;4.350;2024-01-30T07:20:06;12.80;99.90
22491;DHT22;11412;50.802;4.350;2024-01-30T07:22:33;12.70;99.90
22491;DHT22;11412;50.802;4.350;2024-01-30T07:24:59;12.80;99.90
22491;DHT22;11412;50.802;4.350;2024-01-30T07:27:24;13.00;99.90
22491;DHT22;11412;50.802;4.350;2024-01-30T07:29:50;13.10;99.90
22491;DHT22;11412;50.802;4.350;2024-01-30T07:32:16;13.20;99.90
22491;DHT22;11412;50.802;4.350;2024-01-30T07:34:41;13.20;99.90
22491;DHT22;11412;50.802;4.350;2024-01-30T07:37:07;13.20;99.90
22491;DHT22;11412;50.802;4.350;2024-01-30T07:39:34;13.10;99.90
22491;DHT22;11412;50.802;4.350;2024-01-30T07:42:00;12.80;99.90
22491;DHT22;11412;50.802;4.350;2024-01-30T07:44:25;12.90;99.90
22491;DHT22;11412;50.802;4.350;2024-01-30T07:46:51;12.80;99.90
22491;DHT22;11412;50.802;4.350;2024-01-30T07:49:17;12.70;99.90
22491;DHT22;11412;50.802;4.350;2024-01-30T07:51:42;12.90;99.90
22491;DHT22;11412;50.802;4.350;2024-01-30T07:54:15;13.00;99.90
22491;DHT22;11412;50.802;4.350;2024-01-30T07:56:41;12.90;99.90
22491;DHT22;11412;50.802;4.350;2024-01-30T07:59:10;12.70;99.90
22491;DHT22;11412;50.802;4.350;2024-01-30T08:01:37;12.70;99.90
22491;DHT22;11412;50.802;4.350;2024-01-30T08:04:02;12.60;99.90
22491;DHT22;11412;50.802;4.350;2024-01-30T08:06:28;12.70;99.90
22491;DHT22;11412;50.802;4.350;2024-01-30T08:08:54;12.80;99.90
22491;DHT22;11412;50.802;4.350;2024-01-30T08:11:22;12.70;99.90
22491;DHT22;11412;50.802;4.350;2024-01-30T08:13:53;12.80;99.90
22491;DHT22;11412;50.802;4.350;2024-01-30T08:16:18;12.80;99.90
22491;DHT22;11412;50.802;4.350;2024-01-30T08:18:44;12.90;99.90
22491;DHT22;11412;50.802;4.350;2024-01-30T08:21:10;13.10;99.90
22491;DHT22;11412;50.802;4.350;2024-01-30T08:23:35;13.10;99.90
22491;DHT22;11412;50.802;4.350;2024-01-30T08:26:01;13.20;99.90
22491;DHT22;11412;50.802;4.350;2024-01-30T08:28:27;13.10;99.90
22491;DHT22;11412;50.802;4.350;2024-01-30T08:30:52;12.90;99.90
22491;DHT22;11412;50.802;4.350;2024-01-30T08:33:18;13.00;99.90
22491;DHT22;11412;50.802;4.350;2024-01-30T08:35:44;12.90;99.90
22491;DHT22;11412;50.802;4.350;2024-01-30T08:38:09;12.70;99.90
22491;DHT22;11412;50.802;4.350;2024-01-30T08:40:37;12.70;99.90
22491;DHT22;11412;50.802;4.350;2024-01-30T08:43:03;13.10;99.90
22491;DHT22;11412;50.802;4.350;2024-01-30T08:45:29;13.30;99.90
22491;DHT22;11412;50.802;4.350;2024-01-30T08:47:56;13.40;99.90
22491;DHT22;11412;50.802;4.350;2024-01-30T08:50:22;13.30;99.90
22491;DHT22;11412;50.802;4.350;2024-01-30T08:52:48;13.40;99.90
22491;DHT22;11412;50.802;4.350;2024-01-30T08:55:13;13.20;99.90
22491;DHT22;11412;50.802;4.350;2024-01-30T08:57:39;13.00;99.90
22491;DHT22;11412;50.802;4.350;2024-01-30T09:00:05;12.80;99.90
22491;DHT22;11412;50.802;4.350;2024-01-30T09:02:34;12.70;99.90
22491;DHT22;11412;50.802;4.350;2024-01-30T09:05:00;12.80;99.90
22491;DHT22;11412;50.802;4.350;2024-01-30T09:07:26;12.80;99.90
22491;DHT22;11412;50.802;4.350;2024-01-30T09:09:51;12.80;99.90
22491;DHT22;11412;50.802;4.350;2024-01-30T09:12:17;12.90;99.90
22491;DHT22;11412;50.802;4.350;2024-01-30T09:14:43;12.90;99.90
22491;DHT22;11412;50.802;4.350;2024-01-30T09:17:08;13.10;99.90
22491;DHT22;11412;50.802;4.350;2024-01-30T09:19:34;13.30;99.90
22491;DHT22;11412;50.802;4.350;2024-01-30T09:22:00;13.00;99.90
22491;DHT22;11412;50.802;4.350;2024-01-30T09:24:26;13.00;99.90
22491;DHT22;11412;50.802;4.350;2024-01-30T09:26:52;13.00;99.90
22491;DHT22;11412;50.802;4.350;2024-01-30T09:29:18;13.00;99.90
22491;DHT22;11412;50.802;4.350;2024-01-30T09:31:47;13.10;99.90
22491;DHT22;11412;50.802;4.350;2024-01-30T09:34:13;13.20;99.90
22491;DHT22;11412;50.802;4.350;2024-01-30T09:36:39;13.10;99.90
22491;DHT22;11412;50.802;4.350;2024-01-30T09:39:05;12.90;99.90
22491;DHT22;11412;50.802;4.350;2024-01-30T09:41:47;12.80;99.90
22491;DHT22;11412;50.802;4.350;2024-01-30T09:44:16;12.80;99.90
22491;DHT22;11412;50.802;4.350;2024-01-30T09:46:42;12.80;99.90
22491;DHT22;11412;50.802;4.350;2024-01-30T09:49:09;13.00;99.90
22491;DHT22;11412;50.802;4.350;2024-01-30T09:51:35;13.10;99.90
22491;DHT22;11412;50.802;4.350;2024-01-30T09:54:02;13.00;99.90
22491;DHT22;11412;50.802;4.350;2024-01-30T09:56:28;12.90;99.90
22491;DHT22;11412;50.802;4.350;2024-01-30T09:58:54;12.90;99.90
22491;DHT22;11412;50.802;4.350;2024-01-30T10:01:20;12.80;99.90
22491;DHT22;11412;50.802;4.350;2024-01-30T10:03:46;12.80;99.90
22491;DHT22;11412;50.802;4.350;2024-01-30T10:06:12;12.80;99.90
22491;DHT22;11412;50.802;4.350;2024-01-30T10:08:37;12.80;99.90
22491;DHT22;11412;50.802;4.350;2024-01-30T10:11:03;13.00;99.90
22491;DHT22;11412;50.802;4.350;2024-01-30T10:13:29;12.90;99.90
22491;DHT22;11412;50.802;4.350;2024-01-30T10:15:55;12.80;99.90
22491;DHT22;11412;50.802;4.350;2024-01-30T10:18:25;12.80;99.90
22491;DHT22;11412;50.802;4.350;2024-01-30T10:20:51;12.80;99.90
22491;DHT22;11412;50.802;4.350;2024-01-30T10:23:18;12.90;99.90
22491;DHT22;11412;50.802;4.350;2024-01-30T10:25:44;13.00;99.90
22491;DHT22;11412;50.802;4.350;2024-01-30T10:28:11;13.00;99.90
22491;DHT22;11412;50.802;4.350;2024-01-30T10:30:36;12.70;99.90
22491;DHT22;11412;50.802;4.350;2024-01-30T10:33:02;12.70;99.90
22491;DHT22;11412;50.802;4.350;2024-01-30T10:35:28;12.80;99.90
22491;DHT22;11412;50.802;4.350;2024-01-30T10:37:57;12.80;99.90
22491;DHT22;11412;50.802;4.350;2024-01-30T10:40:28;12.90;99.90
22491;DHT22;11412;50.802;4.350;2024-01-30T10:42:55;12.80;99.90
22491;DHT22;11412;50.802;4.350;2024-01-30T10:45:22;12.90;99.90
22491;DHT22;11412;50.802;4.350;2024-01-30T10:47:53;12.90;99.90
22491;DHT22;11412;50.802;4.350;2024-01-30T10:50:19;12.70;99.90
22491;DHT22;11412;50.802;4.350;2024-01-30T10:52:45;12.70;99.90
22491;DHT22;11412;50.802;4.350;2024-01-30T10:55:12;12.70;99.90
22491;DHT22;11412;50.802;4.350;2024-01-30T10:57:39;12.50;99.90
22491;DHT22;11412;50.802;4.350;2024-01-30T11:00:08;12.30;99.90
22491;DHT22;11412;50.802;4.350;2024-01-30T11:02:42;12.40;99.90
22491;DHT22;11412;50.802;4.350;2024-01-30T11:05:08;12.30;99.90
22491;DHT22;11412;50.802;4.350;2024-01-30T11:07:34;12.40;99.90
22491;DHT22;11412;50.802;4.350;2024-01-30T11:10:03;12.40;99.90
22491;DHT22;11412;50.802;4.350;2024-01-30T11:12:33;12.40;99.90
22491;DHT22;11412;50.802;4.350;2024-01-30T11:15:15;12.30;99.90
22491;DHT22;11412;50.802;4.350;2024-01-30T11:17:53;12.10;99.90
22491;DHT22;11412;50.802;4.350;2024-01-30T11:20:21;12.20;99.90
22491;DHT22;11412;50.802;4.350;2024-01-30T11:22:49;12.40;99.90
22491;DHT22;11412;50.802;4.350;2024-01-30T11:25:17;12.50;99.90
22491;DHT22;11412;50.802;4.350;2024-01-30T11:27:44;12.30;99.90
22491;DHT22;11412;50.802;4.350;2024-01-30T11:30:11;12.10;99.90
22491;DHT22;11412;50.802;4.350;2024-01-30T11:32:37;12.10;99.90
22491;DHT22;11412;50.802;4.350;2024-01-30T11:35:04;12.10;99.90
22491;DHT22;11412;50.802;4.350;2024-01-30T11:37:31;12.00;99.90
22491;DHT22;11412;50.802;4.350;2024-01-30T11:39:58;12.20;99.90
22491;DHT22;11412;50.802;4.350;2024-01-30T11:42:24;12.40;99.90
22491;DHT22;11412;50.802;4.350;2024-01-30T11:44:53;12.50;99.90
22491;DHT22;11412;50.802;4.350;2024-01-30T11:47:19;12.60;99.90
22491;DHT22;11412;50.802;4.350;2024-01-30T11:49:45;12.40;99.90
22491;DHT22;11412;50.802;4.350;2024-01-30T11:52:10;12.30;99.90
22491;DHT22;11412;50.802;4.350;2024-01-30T11:54:40;12.10;99.90
22491;DHT22;11412;50.802;4.350;2024-01-30T11:57:05;12.30;99.90
22491;DHT22;11412;50.802;4.350;2024-01-30T11:59:31;12.50;99.90
22491;DHT22;11412;50.802;4.350;2024-01-30T12:01:57;12.70;99.90
22491;DHT22;11412;50.802;4.350;2024-01-30T12:04:22;12.80;99.90
22491;DHT22;11412;50.802;4.350;2024-01-30T12:06:52;12.80;99.90
22491;DHT22;11412;50.802;4.350;2024-01-30T12:09:17;12.70;99.90
22491;DHT22;11412;50.802;4.350;2024-01-30T12:11:47;12.50;99.90
22491;DHT22;11412;50.802;4.350;2024-01-30T12:14:13;12.40;99.90
22491;DHT22;11412;50.802;4.350;2024-01-30T12:16:39;12.30;99.90
22491;DHT22;11412;50.802;4.350;2024-01-30T12:19:06;12.10;99.90
22491;DHT22;11412;50.802;4.350;2024-01-30T12:21:33;12.10;99.90
22491;DHT22;11412;50.802;4.350;2024-01-30T12:24:00;12.10;99.90
22491;DHT22;11412;50.802;4.350;2024-01-30T12:26:26;12.00;99.90
22491;DHT22;11412;50.802;4.350;2024-01-30T12:28:55;12.00;99.90
22491;DHT22;11412;50.802;4.350;2024-01-30T12:31:32;12.20;99.90
22491;DHT22;11412;50.802;4.350;2024-01-30T12:34:00;12.30;99.90
22491;DHT22;11412;50.802;4.350;2024-01-30T12:36:26;12.90;99.90
22491;DHT22;11412;50.802;4.350;2024-01-30T12:38:51;13.40;99.90
22491;DHT22;11412;50.802;4.350;2024-01-30T12:41:18;13.90;99.90
22491;DHT22;11412;50.802;4.350;2024-01-30T12:43:45;14.90;99.90
22491;DHT22;11412;50.802;4.350;2024-01-30T12:46:13;14.80;99.90
22491;DHT22;11412;50.802;4.350;2024-01-30T12:48:38;14.10;99.90
22491;DHT22;11412;50.802;4.350;2024-01-30T12:51:04;13.90;99.90
22491;DHT22;11412;50.802;4.350;2024-01-30T12:53:30;13.70;99.90
22491;DHT22;11412;50.802;4.350;2024-01-30T12:55:56;13.60;99.90
22491;DHT22;11412;50.802;4.350;2024-01-30T12:58:21;13.30;99.90
22491;DHT22;11412;50.802;4.350;2024-01-30T13:00:47;12.90;99.90
22491;DHT22;11412;50.802;4.350;2024-01-30T13:03:13;12.80;99.90
22491;DHT22;11412;50.802;4.350;2024-01-30T13:05:38;13.10;99.90
22491;DHT22;11412;50.802;4.350;2024-01-30T13:08:04;12.90;99.90
22491;DHT22;11412;50.802;4.350;2024-01-30T13:10:30;13.90;99.90
22491;DHT22;11412;50.802;4.350;2024-01-30T13:12:57;15.40;99.90
22491;DHT22;11412;50.802;4.350;2024-01-30T13:15:22;15.70;99.90
22491;DHT22;11412;50.802;4.350;2024-01-30T13:17:49;15.00;99.90
22491;DHT22;11412;50.802;4.350;2024-01-30T13:20:15;14.20;99.90
22491;DHT22;11412;50.802;4.350;2024-01-30T13:22:44;14.10;99.90
22491;DHT22;11412;50.802;4.350;2024-01-30T13:25:10;13.70;99.90
22491;DHT22;11412;50.802;4.350;2024-01-30T13:27:37;13.10;99.90
22491;DHT22;11412;50.802;4.350;2024-01-30T13:30:03;12.90;99.90
22491;DHT22;11412;50.802;4.350;2024-01-30T13:32:29;12.70;99.90
22491;DHT22;11412;50.802;4.350;2024-01-30T13:34:55;12.70;99.90
22491;DHT22;11412;50.802;4.350;2024-01-30T13:37:22;12.50;99.90
22491;DHT22;11412;50.802;4.350;2024-01-30T13:39:48;12.40;99.90
22491;DHT22;11412;50.802;4.350;2024-01-30T13:42:14;12.40;99.90
22491;DHT22;11412;50.802;4.350;2024-01-30T13:44:39;12.40;99.90
22491;DHT22;11412;50.802;4.350;2024-01-30T13:47:05;12.40;99.90
22491;DHT22;11412;50.802;4.350;2024-01-30T13:49:31;12.50;99.90
22491;DHT22;11412;50.802;4.350;2024-01-30T13:51:56;12.40;99.90
22491;DHT22;11412;50.802;4.350;2024-01-30T13:54:23;12.50;99.90
22491;DHT22;11412;50.802;4.350;2024-01-30T13:56:49;12.60;99.90
22491;DHT22;11412;50.802;4.350;2024-01-30T13:59:15;12.50;99.90
22491;DHT22;11412;50.802;4.350;2024-01-30T14:01:40;12.30;99.90
22491;DHT22;11412;50.802;4.350;2024-01-30T14:04:06;12.30;99.90
22491;DHT22;11412;50.802;4.350;2024-01-30T14:06:32;12.20;99.90
22491;DHT22;11412;50.802;4.350;2024-01-30T14:08:57;12.30;99.90
22491;DHT22;11412;50.802;4.350;2024-01-30T14:11:23;12.10;99.90
22491;DHT22;11412;50.802;4.350;2024-01-30T14:13:49;12.20;99.90
22491;DHT22;11412;50.802;4.350;2024-01-30T14:16:16;12.10;99.90
22491;DHT22;11412;50.802;4.350;2024-01-30T14:18:41;12.10;99.90
22491;DHT22;11412;50.802;4.350;2024-01-30T14:21:07;12.20;99.90
22491;DHT22;11412;50.802;4.350;2024-01-30T14:23:33;12.20;99.90
22491;DHT22;11412;50.802;4.350;2024-01-30T14:25:59;12.10;99.90
22491;DHT22;11412;50.802;4.350;2024-01-30T14:28:25;11.90;99.90
22491;DHT22;11412;50.802;4.350;2024-01-30T14:30:50;11.80;99.90
22491;DHT22;11412;50.802;4.350;2024-01-30T14:33:16;11.80;99.90
22491;DHT22;11412;50.802;4.350;2024-01-30T14:35:42;11.80;99.90
22491;DHT22;11412;50.802;4.350;2024-01-30T14:38:08;11.90;99.90
22491;DHT22;11412;50.802;4.350;2024-01-30T14:40:34;11.90;99.90
22491;DHT22;11412;50.802;4.350;2024-01-30T14:43:00;11.80;99.90
22491;DHT22;11412;50.802;4.350;2024-01-30T14:45:26;11.70;99.90
22491;DHT22;11412;50.802;4.350;2024-01-30T14:47:52;11.70;99.90
22491;DHT22;11412;50.802;4.350;2024-01-30T14:50:18;11.60;99.90
22491;DHT22;11412;50.802;4.350;2024-01-30T14:52:44;11.70;99.90
22491;DHT22;11412;50.802;4.350;2024-01-30T14:55:10;11.80;99.90
22491;DHT22;11412;50.802;4.350;2024-01-30T14:57:35;11.80;99.90
22491;DHT22;11412;50.802;4.350;2024-01-30T15:00:04;11.80;99.90
22491;DHT22;11412;50.802;4.350;2024-01-30T15:02:30;11.60;99.90
22491;DHT22;11412;50.802;4.350;2024-01-30T15:04:55;11.70;99.90
22491;DHT22;11412;50.802;4.350;2024-01-30T15:07:21;11.60;99.90
22491;DHT22;11412;50.802;4.350;2024-01-30T15:09:46;11.50;99.90
22491;DHT22;11412;50.802;4.350;2024-01-30T15:12:12;11.30;99.90
22491;DHT22;11412;50.802;4.350;2024-01-30T15:14:38;11.10;99.90
22491;DHT22;11412;50.802;4.350;2024-01-30T15:17:04;11.00;99.90
22491;DHT22;11412;50.802;4.350;2024-01-30T15:19:29;11.10;99.90
22491;DHT22;11412;50.802;4.350;2024-01-30T15:21:55;11.10;99.90
22491;DHT22;11412;50.802;4.350;2024-01-30T15:24:21;11.10;99.90